sensor_id;sensor_type;location;lat;lon;timestamp;pressure;altitude;pressure_sealevel;temperature;humidity
8758;BME280;4415;42.152;24.744;2023-06-26T00:01:44;99037.03;;;24.08;nan
8758;BME280;4415;42.152;24.744;2023-06-26T00:04:09;99025.97;;;24.05;nan
8758;BME280;4415;42.152;24.744;2023-06-26T00:06:39;99029.09;;;24.03;nan
8758;BME280;4415;42.152;24.744;2023-06-26T00:09:05;99030.31;;;24.02;nan
8758;BME280;4415;42.152;24.744;2023-06-26T00:11:30;99001.50;;;23.89;nan
8758;BME280;4415;42.152;24.744;2023-06-26T00:13:59;99026.78;;;24.09;nan
8758;BME280;4415;42.152;24.744;2023-06-26T00:16:26;99022.88;;;24.14;nan
8758;BME280;4415;42.152;24.744;2023-06-26T00:21:16;99018.88;;;24.07;nan
8758;BME280;4415;42.152;24.744;2023-06-26T00:23:42;99019.69;;;24.11;nan
8758;BME280;4415;42.152;24.744;2023-06-26T00:26:08;99031.94;;;24.10;nan
8758;BME280;4415;42.152;24.744;2023-06-26T00:28:34;99021.22;;;23.98;nan
8758;BME280;4415;42.152;24.744;2023-06-26T00:31:00;99036.28;;;24.15;nan
8758;BME280;4415;42.152;24.744;2023-06-26T00:33:25;98973.19;;;24.14;nan
8758;BME280;4415;42.152;24.744;2023-06-26T00:35:50;99038.56;;;23.99;nan
8758;BME280;4415;42.152;24.744;2023-06-26T00:38:16;99039.38;;;24.03;nan
8758;BME280;4415;42.152;24.744;2023-06-26T00:40:42;99026.72;;;23.98;nan
8758;BME280;4415;42.152;24.744;2023-06-26T00:43:08;99041.72;;;23.94;nan
8758;BME280;4415;42.152;24.744;2023-06-26T00:45:33;99032.25;;;23.95;nan
8758;BME280;4415;42.152;24.744;2023-06-26T00:47:59;99029.84;;;23.90;nan
8758;BME280;4415;42.152;24.744;2023-06-26T00:52:50;99035.38;;;23.86;nan
8758;BME280;4415;42.152;24.744;2023-06-26T00:55:15;99024.31;;;23.79;nan
8758;BME280;4415;42.152;24.744;2023-06-26T00:57:41;99035.31;;;23.72;nan
8758;BME280;4415;42.152;24.744;2023-06-26T01:00:07;99006.13;;;23.61;nan
8758;BME280;4415;42.152;24.744;2023-06-26T01:02:33;99027.44;;;23.67;nan
8758;BME280;4415;42.152;24.744;2023-06-26T01:05:00;99031.34;;;23.59;nan
8758;BME280;4415;42.152;24.744;2023-06-26T01:07:28;99025.03;;;23.59;nan
8758;BME280;4415;42.152;24.744;2023-06-26T01:09:54;99008.41;;;23.41;nan
8758;BME280;4415;42.152;24.744;2023-06-26T01:12:19;99017.94;;;23.54;nan
8758;BME280;4415;42.152;24.744;2023-06-26T01:14:45;99020.25;;;23.48;nan
8758;BME280;4415;42.152;24.744;2023-06-26T01:17:10;99002.16;;;23.51;nan
8758;BME280;4415;42.152;24.744;2023-06-26T01:19:40;99018.31;;;23.49;nan
8758;BME280;4415;42.152;24.744;2023-06-26T01:22:29;99023.41;;;23.47;nan
8758;BME280;4415;42.152;24.744;2023-06-26T01:27:38;98998.09;;;23.31;nan
8758;BME280;4415;42.152;24.744;2023-06-26T01:32:31;99070.56;;;23.35;nan
8758;BME280;4415;42.152;24.744;2023-06-26T01:34:59;98994.97;;;23.36;nan
8758;BME280;4415;42.152;24.744;2023-06-26T01:37:24;98998.88;;;23.28;nan
8758;BME280;4415;42.152;24.744;2023-06-26T01:39:50;98987.84;;;23.28;nan
8758;BME280;4415;42.152;24.744;2023-06-26T01:42:15;98997.28;;;23.27;nan
8758;BME280;4415;42.152;24.744;2023-06-26T01:44:46;98994.91;;;23.29;nan
8758;BME280;4415;42.152;24.744;2023-06-26T01:47:16;98998.06;;;23.24;nan
8758;BME280;4415;42.152;24.744;2023-06-26T01:50:02;98995.72;;;23.26;nan
8758;BME280;4415;42.152;24.744;2023-06-26T01:52:48;99002.78;;;23.27;nan
8758;BME280;4415;42.152;24.744;2023-06-26T01:57:45;98998.84;;;23.24;nan
8758;BME280;4415;42.152;24.744;2023-06-26T02:00:14;98988.59;;;23.21;nan
8758;BME280;4415;42.152;24.744;2023-06-26T02:02:43;98984.66;;;23.19;nan
8758;BME280;4415;42.152;24.744;2023-06-26T02:05:09;98992.53;;;23.24;nan
8758;BME280;4415;42.152;24.744;2023-06-26T02:07:34;99011.47;;;23.25;nan
8758;BME280;4415;42.152;24.744;2023-06-26T02:09:59;98994.13;;;23.25;nan
8758;BME280;4415;42.152;24.744;2023-06-26T02:12:25;98985.47;;;23.23;nan
8758;BME280;4415;42.152;24.744;2023-06-26T02:17:16;98994.91;;;23.29;nan
8758;BME280;4415;42.152;24.744;2023-06-26T02:19:41;98992.56;;;23.27;nan
8758;BME280;4415;42.152;24.744;2023-06-26T02:22:16;99001.22;;;23.29;nan
8758;BME280;4415;42.152;24.744;2023-06-26T02:24:42;99002.06;;;23.33;nan
8758;BME280;4415;42.152;24.744;2023-06-26T02:27:09;99003.69;;;23.38;nan
8758;BME280;4415;42.152;24.744;2023-06-26T02:29:35;98988.66;;;23.28;nan
8758;BME280;4415;42.152;24.744;2023-06-26T02:32:00;98987.88;;;23.35;nan
8758;BME280;4415;42.152;24.744;2023-06-26T02:34:26;98978.44;;;23.36;nan
8758;BME280;4415;42.152;24.744;2023-06-26T02:36:51;98991.91;;;23.48;nan
8758;BME280;4415;42.152;24.744;2023-06-26T02:39:19;98995.03;;;23.43;nan
8758;BME280;4415;42.152;24.744;2023-06-26T02:41:45;98995.03;;;23.43;nan
8758;BME280;4415;42.152;24.744;2023-06-26T02:44:10;99065.91;;;23.39;nan
8758;BME280;4415;42.152;24.744;2023-06-26T02:49:02;98987.88;;;23.35;nan
8758;BME280;4415;42.152;24.744;2023-06-26T02:53:53;98971.25;;;23.21;nan
8758;BME280;4415;42.152;24.744;2023-06-26T02:56:18;98998.16;;;23.38;nan
8758;BME280;4415;42.152;24.744;2023-06-26T02:58:43;98996.56;;;23.37;nan
8758;BME280;4415;42.152;24.744;2023-06-26T03:01:09;98996.56;;;23.37;nan
8758;BME280;4415;42.152;24.744;2023-06-26T03:03:34;98979.94;;;23.23;nan
8758;BME280;4415;42.152;24.744;2023-06-26T03:06:07;98984.69;;;23.26;nan
8758;BME280;4415;42.152;24.744;2023-06-26T03:08:33;98990.97;;;23.26;nan
8758;BME280;4415;42.152;24.744;2023-06-26T03:10:58;99008.38;;;23.34;nan
8758;BME280;4415;42.152;24.744;2023-06-26T03:15:49;98992.97;;;23.26;nan
8758;BME280;4415;42.152;24.744;2023-06-26T03:18:14;99003.63;;;23.31;nan
8758;BME280;4415;42.152;24.744;2023-06-26T03:20:40;99003.69;;;23.38;nan
8758;BME280;4415;42.152;24.744;2023-06-26T03:23:05;99012.38;;;23.47;nan
8758;BME280;4415;42.152;24.744;2023-06-26T03:25:31;99014.00;;;23.55;nan
8758;BME280;4415;42.152;24.744;2023-06-26T03:27:56;99020.31;;;23.59;nan
8758;BME280;4415;42.152;24.744;2023-06-26T03:30:21;99026.66;;;23.63;nan
8758;BME280;4415;42.152;24.744;2023-06-26T03:32:47;99003.00;;;23.69;nan
8758;BME280;4415;42.152;24.744;2023-06-26T03:35:12;99018.00;;;23.75;nan
8758;BME280;4415;42.152;24.744;2023-06-26T03:37:37;99024.31;;;23.79;nan
8758;BME280;4415;42.152;24.744;2023-06-26T03:40:03;99018.03;;;23.86;nan
8758;BME280;4415;42.152;24.744;2023-06-26T03:42:30;99009.31;;;23.70;nan
8758;BME280;4415;42.152;24.744;2023-06-26T03:44:55;99019.59;;;23.80;nan
8758;BME280;4415;42.152;24.744;2023-06-26T03:47:20;99013.31;;;23.90;nan
8758;BME280;4415;42.152;24.744;2023-06-26T03:49:46;99000.69;;;23.82;nan
8758;BME280;4415;42.152;24.744;2023-06-26T03:52:11;99012.56;;;24.03;nan
8758;BME280;4415;42.152;24.744;2023-06-26T03:54:37;99011.81;;;24.10;nan
8758;BME280;4415;42.152;24.744;2023-06-26T03:57:02;99020.53;;;24.47;nan
8758;BME280;4415;42.152;24.744;2023-06-26T03:59:27;99012.56;;;25.23;nan
8758;BME280;4415;42.152;24.744;2023-06-26T04:01:53;99003.91;;;25.14;nan
8758;BME280;4415;42.152;24.744;2023-06-26T04:04:18;99004.72;;;25.11;nan
8758;BME280;4415;42.152;24.744;2023-06-26T04:06:44;99015.69;;;25.43;nan
8758;BME280;4415;42.152;24.744;2023-06-26T04:09:09;99004.06;;;26.45;nan
8758;BME280;4415;42.152;24.744;2023-06-26T04:11:34;99008.22;;;27.80;nan
8758;BME280;4415;42.152;24.744;2023-06-26T04:14:00;99004.81;;;28.52;nan
8758;BME280;4415;42.152;24.744;2023-06-26T04:16:25;99017.25;;;29.14;nan
8758;BME280;4415;42.152;24.744;2023-06-26T04:18:51;99014.78;;;29.19;nan
8758;BME280;4415;42.152;24.744;2023-06-26T04:21:20;99011.16;;;29.42;nan
8758;BME280;4415;42.152;24.744;2023-06-26T04:26:12;99012.72;;;28.54;nan
8758;BME280;4415;42.152;24.744;2023-06-26T04:28:40;99008.81;;;28.98;nan
8758;BME280;4415;42.152;24.744;2023-06-26T04:31:05;99015.78;;;29.29;nan
8758;BME280;4415;42.152;24.744;2023-06-26T04:33:31;99002.84;;;29.19;nan
8758;BME280;4415;42.152;24.744;2023-06-26T04:35:56;99017.16;;;29.21;nan
8758;BME280;4415;42.152;24.744;2023-06-26T04:38:22;99018.94;;;28.61;nan
8758;BME280;4415;42.152;24.744;2023-06-26T04:40:48;99020.56;;;28.09;nan
8758;BME280;4415;42.152;24.744;2023-06-26T04:43:14;99020.81;;;28.45;nan
8758;BME280;4415;42.152;24.744;2023-06-26T04:45:40;99028.44;;;28.10;nan
8758;BME280;4415;42.152;24.744;2023-06-26T04:48:05;99028.31;;;28.21;nan
8758;BME280;4415;42.152;24.744;2023-06-26T04:50:31;99014.16;;;28.65;nan
8758;BME280;4415;42.152;24.744;2023-06-26T04:52:58;99024.88;;;29.72;nan
8758;BME280;4415;42.152;24.744;2023-06-26T04:55:24;99040.84;;;29.29;nan
8758;BME280;4415;42.152;24.744;2023-06-26T04:57:50;99038.09;;;29.49;nan
8758;BME280;4415;42.152;24.744;2023-06-26T05:00:16;99027.69;;;30.92;nan
8758;BME280;4415;42.152;24.744;2023-06-26T05:02:41;99032.94;;;31.64;nan
8758;BME280;4415;42.152;24.744;2023-06-26T05:05:07;99051.66;;;33.06;nan
8758;BME280;4415;42.152;24.744;2023-06-26T05:07:32;99049.66;;;32.93;nan
8758;BME280;4415;42.152;24.744;2023-06-26T05:09:58;99040.75;;;32.23;nan
8758;BME280;4415;42.152;24.744;2023-06-26T05:12:23;99057.28;;;32.80;nan
8758;BME280;4415;42.152;24.744;2023-06-26T05:14:48;99066.19;;;33.91;nan
8758;BME280;4415;42.152;24.744;2023-06-26T05:17:14;99059.28;;;35.60;nan
8758;BME280;4415;42.152;24.744;2023-06-26T05:19:40;99054.84;;;35.86;nan
8758;BME280;4415;42.152;24.744;2023-06-26T05:22:06;99067.25;;;34.67;nan
8758;BME280;4415;42.152;24.744;2023-06-26T05:24:36;99076.50;;;33.94;nan
8758;BME280;4415;42.152;24.744;2023-06-26T05:27:02;99066.19;;;34.52;nan
8758;BME280;4415;42.152;24.744;2023-06-26T05:29:32;99069.16;;;34.98;nan
8758;BME280;4415;42.152;24.744;2023-06-26T05:31:59;99084.19;;;35.22;nan
8758;BME280;4415;42.152;24.744;2023-06-26T05:34:25;99088.44;;;34.68;nan
8758;BME280;4415;42.152;24.744;2023-06-26T05:36:57;99083.69;;;33.73;nan
8758;BME280;4415;42.152;24.744;2023-06-26T05:39:23;99084.81;;;32.69;nan
8758;BME280;4415;42.152;24.744;2023-06-26T05:41:50;99086.50;;;32.67;nan
8758;BME280;4415;42.152;24.744;2023-06-26T05:44:16;99070.38;;;33.65;nan
8758;BME280;4415;42.152;24.744;2023-06-26T05:46:41;99072.13;;;35.03;nan
8758;BME280;4415;42.152;24.744;2023-06-26T05:49:07;99080.78;;;35.45;nan
8758;BME280;4415;42.152;24.744;2023-06-26T05:51:33;99080.56;;;34.54;nan
8758;BME280;4415;42.152;24.744;2023-06-26T05:53:58;99076.09;;;34.04;nan
8758;BME280;4415;42.152;24.744;2023-06-26T05:56:24;99073.13;;;33.77;nan
8758;BME280;4415;42.152;24.744;2023-06-26T05:58:50;99079.38;;;35.22;nan
8758;BME280;4415;42.152;24.744;2023-06-26T06:01:16;99084.84;;;35.26;nan
8758;BME280;4415;42.152;24.744;2023-06-26T06:03:41;99049.97;;;36.56;nan
8758;BME280;4415;42.152;24.744;2023-06-26T06:06:07;99061.19;;;37.36;nan
8758;BME280;4415;42.152;24.744;2023-06-26T06:08:32;99073.16;;;35.73;nan
8758;BME280;4415;42.152;24.744;2023-06-26T06:10:59;99066.00;;;34.78;nan
8758;BME280;4415;42.152;24.744;2023-06-26T06:13:25;99079.34;;;32.66;nan
8758;BME280;4415;42.152;24.744;2023-06-26T06:15:50;99078.31;;;32.47;nan
8758;BME280;4415;42.152;24.744;2023-06-26T06:18:15;99094.31;;;32.21;nan
8758;BME280;4415;42.152;24.744;2023-06-26T06:20:41;99100.81;;;31.90;nan
8758;BME280;4415;42.152;24.744;2023-06-26T06:23:06;99090.09;;;31.43;nan
8758;BME280;4415;42.152;24.744;2023-06-26T06:25:32;99083.28;;;30.83;nan
8758;BME280;4415;42.152;24.744;2023-06-26T06:27:57;99082.50;;;30.83;nan
8758;BME280;4415;42.152;24.744;2023-06-26T06:30:23;99086.38;;;30.37;nan
8758;BME280;4415;42.152;24.744;2023-06-26T06:32:48;99075.44;;;29.90;nan
8758;BME280;4415;42.152;24.744;2023-06-26T06:35:19;99072.91;;;29.57;nan
8758;BME280;4415;42.152;24.744;2023-06-26T06:37:44;99084.38;;;29.39;nan
8758;BME280;4415;42.152;24.744;2023-06-26T06:40:10;99066.00;;;28.99;nan
8758;BME280;4415;42.152;24.744;2023-06-26T06:42:36;99090.13;;;28.82;nan
8758;BME280;4415;42.152;24.744;2023-06-26T06:45:02;99063.75;;;28.40;nan
8758;BME280;4415;42.152;24.744;2023-06-26T06:47:28;99080.91;;;28.58;nan
8758;BME280;4415;42.152;24.744;2023-06-26T06:49:53;99078.56;;;28.57;nan
8758;BME280;4415;42.152;24.744;2023-06-26T06:52:19;99084.19;;;28.53;nan
8758;BME280;4415;42.152;24.744;2023-06-26T06:54:55;99083.28;;;28.63;nan
8758;BME280;4415;42.152;24.744;2023-06-26T06:57:21;99068.59;;;28.86;nan
8758;BME280;4415;42.152;24.744;2023-06-26T06:59:47;99084.91;;;29.07;nan
8758;BME280;4415;42.152;24.744;2023-06-26T07:02:14;99084.59;;;29.68;nan
8758;BME280;4415;42.152;24.744;2023-06-26T07:04:40;99085.84;;;29.86;nan
8758;BME280;4415;42.152;24.744;2023-06-26T07:07:06;99070.53;;;30.66;nan
8758;BME280;4415;42.152;24.744;2023-06-26T07:09:31;99086.00;;;30.87;nan
8758;BME280;4415;42.152;24.744;2023-06-26T07:11:56;99006.94;;;31.22;nan
8758;BME280;4415;42.152;24.744;2023-06-26T07:14:23;99078.03;;;31.17;nan
8758;BME280;4415;42.152;24.744;2023-06-26T07:16:48;99083.09;;;31.06;nan
8758;BME280;4415;42.152;24.744;2023-06-26T07:19:13;99067.44;;;30.96;nan
8758;BME280;4415;42.152;24.744;2023-06-26T07:21:39;99072.59;;;30.98;nan
8758;BME280;4415;42.152;24.744;2023-06-26T07:24:04;98985.66;;;30.99;nan
8758;BME280;4415;42.152;24.744;2023-06-26T07:26:29;99063.03;;;31.11;nan
8758;BME280;4415;42.152;24.744;2023-06-26T07:28:55;99060.44;;;31.78;nan
8758;BME280;4415;42.152;24.744;2023-06-26T07:31:22;99050.41;;;31.93;nan
8758;BME280;4415;42.152;24.744;2023-06-26T07:33:47;99062.34;;;32.22;nan
8758;BME280;4415;42.152;24.744;2023-06-26T07:36:12;99075.66;;;34.77;nan
8758;BME280;4415;42.152;24.744;2023-06-26T07:38:38;99061.38;;;37.33;nan
8758;BME280;4415;42.152;24.744;2023-06-26T07:41:03;99049.63;;;38.46;nan
8758;BME280;4415;42.152;24.744;2023-06-26T07:43:29;99152.47;;;37.77;nan
8758;BME280;4415;42.152;24.744;2023-06-26T07:45:54;99052.88;;;39.54;nan
8758;BME280;4415;42.152;24.744;2023-06-26T07:48:20;98978.69;;;40.27;nan
8758;BME280;4415;42.152;24.744;2023-06-26T07:50:45;99053.75;;;39.66;nan
8758;BME280;4415;42.152;24.744;2023-06-26T07:53:11;99064.59;;;38.22;nan
8758;BME280;4415;42.152;24.744;2023-06-26T07:55:36;99049.44;;;36.90;nan
8758;BME280;4415;42.152;24.744;2023-06-26T07:58:01;99065.00;;;35.75;nan
8758;BME280;4415;42.152;24.744;2023-06-26T08:00:27;99080.44;;;34.58;nan
8758;BME280;4415;42.152;24.744;2023-06-26T08:02:52;99083.78;;;34.13;nan
8758;BME280;4415;42.152;24.744;2023-06-26T08:05:18;99084.06;;;33.84;nan
8758;BME280;4415;42.152;24.744;2023-06-26T08:07:44;99092.84;;;32.92;nan
8758;BME280;4415;42.152;24.744;2023-06-26T08:10:09;99081.13;;;32.85;nan
8758;BME280;4415;42.152;24.744;2023-06-26T08:12:35;99084.69;;;32.22;nan
8758;BME280;4415;42.152;24.744;2023-06-26T08:15:02;99082.66;;;32.10;nan
8758;BME280;4415;42.152;24.744;2023-06-26T08:17:28;99073.06;;;32.11;nan
8758;BME280;4415;42.152;24.744;2023-06-26T08:19:53;99065.81;;;31.85;nan
8758;BME280;4415;42.152;24.744;2023-06-26T08:22:19;99083.59;;;31.50;nan
8758;BME280;4415;42.152;24.744;2023-06-26T08:24:44;99094.63;;;31.08;nan
8758;BME280;4415;42.152;24.744;2023-06-26T08:27:10;99082.88;;;30.13;nan
8758;BME280;4415;42.152;24.744;2023-06-26T08:29:35;99097.25;;;29.72;nan
8758;BME280;4415;42.152;24.744;2023-06-26T08:32:00;99105.19;;;29.31;nan
8758;BME280;4415;42.152;24.744;2023-06-26T08:34:27;99092.63;;;28.46;nan
8758;BME280;4415;42.152;24.744;2023-06-26T08:36:52;99086.91;;;27.66;nan
8758;BME280;4415;42.152;24.744;2023-06-26T08:39:18;99079.84;;;26.73;nan
8758;BME280;4415;42.152;24.744;2023-06-26T08:41:44;99059.78;;;25.89;nan
8758;BME280;4415;42.152;24.744;2023-06-26T08:44:10;99070.91;;;25.71;nan
8758;BME280;4415;42.152;24.744;2023-06-26T08:46:36;99059.13;;;25.50;nan
8758;BME280;4415;42.152;24.744;2023-06-26T08:49:08;99065.41;;;25.68;nan
8758;BME280;4415;42.152;24.744;2023-06-26T08:51:37;99062.84;;;26.16;nan
8758;BME280;4415;42.152;24.744;2023-06-26T08:54:07;99043.84;;;27.17;nan
8758;BME280;4415;42.152;24.744;2023-06-26T08:56:42;99058.94;;;28.44;nan
8758;BME280;4415;42.152;24.744;2023-06-26T08:59:09;99060.44;;;28.99;nan
8758;BME280;4415;42.152;24.744;2023-06-26T09:01:40;99068.56;;;29.75;nan
8758;BME280;4415;42.152;24.744;2023-06-26T09:04:06;99033.41;;;30.53;nan
8758;BME280;4415;42.152;24.744;2023-06-26T09:06:32;99051.88;;;31.11;nan
8758;BME280;4415;42.152;24.744;2023-06-26T09:08:58;99054.09;;;33.72;nan
8758;BME280;4415;42.152;24.744;2023-06-26T09:11:23;99066.97;;;34.13;nan
8758;BME280;4415;42.152;24.744;2023-06-26T09:13:49;99046.41;;;33.64;nan
8758;BME280;4415;42.152;24.744;2023-06-26T09:16:15;99060.13;;;35.03;nan
8758;BME280;4415;42.152;24.744;2023-06-26T09:18:41;99050.56;;;36.60;nan
8758;BME280;4415;42.152;24.744;2023-06-26T09:21:09;99052.94;;;38.99;nan
8758;BME280;4415;42.152;24.744;2023-06-26T09:23:35;99046.84;;;38.51;nan
8758;BME280;4415;42.152;24.744;2023-06-26T09:26:05;99070.25;;;36.18;nan
8758;BME280;4415;42.152;24.744;2023-06-26T09:28:32;99071.63;;;34.78;nan
8758;BME280;4415;42.152;24.744;2023-06-26T09:31:06;99077.78;;;32.65;nan
8758;BME280;4415;42.152;24.744;2023-06-26T09:33:35;99071.78;;;31.13;nan
8758;BME280;4415;42.152;24.744;2023-06-26T09:36:05;99061.31;;;29.38;nan
8758;BME280;4415;42.152;24.744;2023-06-26T09:38:30;99068.00;;;29.21;nan
8758;BME280;4415;42.152;24.744;2023-06-26T09:40:56;99044.97;;;29.21;nan
8758;BME280;4415;42.152;24.744;2023-06-26T09:43:21;99048.59;;;28.95;nan
8758;BME280;4415;42.152;24.744;2023-06-26T09:45:47;99061.19;;;28.79;nan
8758;BME280;4415;42.152;24.744;2023-06-26T09:48:13;99073.63;;;28.71;nan
8758;BME280;4415;42.152;24.744;2023-06-26T09:50:41;99084.50;;;28.32;nan
8758;BME280;4415;42.152;24.744;2023-06-26T09:55:36;99074.13;;;28.36;nan
8758;BME280;4415;42.152;24.744;2023-06-26T09:58:03;99082.72;;;28.45;nan
8758;BME280;4415;42.152;24.744;2023-06-26T10:00:30;99081.06;;;27.91;nan
8758;BME280;4415;42.152;24.744;2023-06-26T10:02:56;99082.06;;;27.74;nan
8758;BME280;4415;42.152;24.744;2023-06-26T10:05:21;99084.72;;;27.50;nan
8758;BME280;4415;42.152;24.744;2023-06-26T10:07:47;99079.25;;;27.43;nan
8758;BME280;4415;42.152;24.744;2023-06-26T10:10:15;99068.03;;;27.54;nan
8758;BME280;4415;42.152;24.744;2023-06-26T10:12:43;99047.94;;;27.77;nan
8758;BME280;4415;42.152;24.744;2023-06-26T10:17:42;99043.22;;;28.34;nan
8758;BME280;4415;42.152;24.744;2023-06-26T10:20:08;99059.91;;;28.84;nan
8758;BME280;4415;42.152;24.744;2023-06-26T10:22:41;99060.13;;;29.16;nan
8758;BME280;4415;42.152;24.744;2023-06-26T10:25:09;99043.66;;;29.88;nan
8758;BME280;4415;42.152;24.744;2023-06-26T10:27:39;99054.88;;;30.20;nan
8758;BME280;4415;42.152;24.744;2023-06-26T10:30:16;99048.25;;;30.98;nan
8758;BME280;4415;42.152;24.744;2023-06-26T10:32:43;99048.22;;;30.82;nan
8758;BME280;4415;42.152;24.744;2023-06-26T10:35:09;99029.88;;;31.30;nan
8758;BME280;4415;42.152;24.744;2023-06-26T10:37:43;99037.50;;;32.75;nan
8758;BME280;4415;42.152;24.744;2023-06-26T10:40:09;99042.19;;;33.46;nan
8758;BME280;4415;42.152;24.744;2023-06-26T10:42:36;99020.47;;;34.73;nan
8758;BME280;4415;42.152;24.744;2023-06-26T10:45:16;98942.50;;;35.32;nan
8758;BME280;4415;42.152;24.744;2023-06-26T10:47:48;99021.78;;;34.51;nan
8758;BME280;4415;42.152;24.744;2023-06-26T10:52:45;99020.06;;;33.39;nan
8758;BME280;4415;42.152;24.744;2023-06-26T10:55:13;99011.03;;;34.09;nan
8758;BME280;4415;42.152;24.744;2023-06-26T10:57:38;99020.06;;;33.83;nan
8758;BME280;4415;42.152;24.744;2023-06-26T11:00:11;99020.81;;;34.05;nan
8758;BME280;4415;42.152;24.744;2023-06-26T11:02:51;99020.84;;;34.45;nan
8758;BME280;4415;42.152;24.744;2023-06-26T11:05:25;99017.66;;;34.64;nan
8758;BME280;4415;42.152;24.744;2023-06-26T11:08:10;99017.94;;;34.57;nan
8758;BME280;4415;42.152;24.744;2023-06-26T11:10:54;99011.28;;;34.02;nan
8758;BME280;4415;42.152;24.744;2023-06-26T11:13:21;99009.41;;;34.30;nan
8758;BME280;4415;42.152;24.744;2023-06-26T11:15:47;98993.50;;;34.27;nan
8758;BME280;4415;42.152;24.744;2023-06-26T11:18:14;98998.69;;;33.33;nan
8758;BME280;4415;42.152;24.744;2023-06-26T11:20:40;99004.81;;;33.40;nan
8758;BME280;4415;42.152;24.744;2023-06-26T11:23:07;99008.13;;;32.92;nan
8758;BME280;4415;42.152;24.744;2023-06-26T11:25:37;99006.13;;;32.80;nan
8758;BME280;4415;42.152;24.744;2023-06-26T11:28:04;98979.22;;;32.95;nan
8758;BME280;4415;42.152;24.744;2023-06-26T11:30:31;99000.69;;;32.98;nan
8758;BME280;4415;42.152;24.744;2023-06-26T11:33:08;99022.50;;;32.18;nan
8758;BME280;4415;42.152;24.744;2023-06-26T11:35:34;99008.81;;;31.41;nan
8758;BME280;4415;42.152;24.744;2023-06-26T11:38:01;99003.81;;;31.49;nan
8758;BME280;4415;42.152;24.744;2023-06-26T11:40:32;99012.88;;;30.79;nan
8758;BME280;4415;42.152;24.744;2023-06-26T11:42:58;98994.75;;;30.03;nan
8758;BME280;4415;42.152;24.744;2023-06-26T11:45:27;99048.94;;;29.82;nan
8758;BME280;4415;42.152;24.744;2023-06-26T11:47:54;99005.28;;;29.17;nan
8758;BME280;4415;42.152;24.744;2023-06-26T11:50:20;99000.44;;;29.21;nan
8758;BME280;4415;42.152;24.744;2023-06-26T11:52:53;99011.75;;;29.10;nan
8758;BME280;4415;42.152;24.744;2023-06-26T11:55:19;99010.50;;;29.74;nan
8758;BME280;4415;42.152;24.744;2023-06-26T11:57:48;98961.63;;;30.25;nan
8758;BME280;4415;42.152;24.744;2023-06-26T12:00:15;99006.66;;;30.72;nan
8758;BME280;4415;42.152;24.744;2023-06-26T12:02:42;98997.75;;;30.77;nan
8758;BME280;4415;42.152;24.744;2023-06-26T12:05:09;99003.53;;;30.53;nan
8758;BME280;4415;42.152;24.744;2023-06-26T12:07:35;99001.53;;;31.44;nan
8758;BME280;4415;42.152;24.744;2023-06-26T12:10:03;98998.59;;;32.17;nan
8758;BME280;4415;42.152;24.744;2023-06-26T12:12:30;99015.44;;;32.39;nan
8758;BME280;4415;42.152;24.744;2023-06-26T12:14:57;99008.91;;;32.92;nan
8758;BME280;4415;42.152;24.744;2023-06-26T12:17:23;99000.53;;;31.79;nan
8758;BME280;4415;42.152;24.744;2023-06-26T12:19:50;99017.41;;;31.75;nan
8758;BME280;4415;42.152;24.744;2023-06-26T12:22:17;98998.81;;;32.35;nan
8758;BME280;4415;42.152;24.744;2023-06-26T12:24:43;99021.78;;;32.90;nan
8758;BME280;4415;42.152;24.744;2023-06-26T12:27:11;99005.97;;;33.09;nan
8758;BME280;4415;42.152;24.744;2023-06-26T12:29:38;99022.50;;;32.44;nan
8758;BME280;4415;42.152;24.744;2023-06-26T12:32:03;99031.81;;;31.74;nan
8758;BME280;4415;42.152;24.744;2023-06-26T12:34:32;99030.75;;;31.27;nan
8758;BME280;4415;42.152;24.744;2023-06-26T12:37:03;99037.22;;;31.24;nan
8758;BME280;4415;42.152;24.744;2023-06-26T12:39:29;99031.47;;;31.43;nan
8758;BME280;4415;42.152;24.744;2023-06-26T12:41:56;99026.38;;;31.96;nan
8758;BME280;4415;42.152;24.744;2023-06-26T12:44:30;99026.91;;;32.57;nan
8758;BME280;4415;42.152;24.744;2023-06-26T12:47:00;99028.84;;;32.94;nan
8758;BME280;4415;42.152;24.744;2023-06-26T12:49:45;99037.28;;;32.06;nan
8758;BME280;4415;42.152;24.744;2023-06-26T12:52:15;99051.19;;;30.75;nan
8758;BME280;4415;42.152;24.744;2023-06-26T12:54:42;99058.97;;;29.37;nan
8758;BME280;4415;42.152;24.744;2023-06-26T12:57:08;99062.06;;;28.96;nan
8758;BME280;4415;42.152;24.744;2023-06-26T12:59:38;99060.19;;;28.13;nan
8758;BME280;4415;42.152;24.744;2023-06-26T13:02:04;99062.44;;;27.57;nan
8758;BME280;4415;42.152;24.744;2023-06-26T13:04:30;99053.56;;;27.70;nan
8758;BME280;4415;42.152;24.744;2023-06-26T13:06:56;99074.72;;;27.90;nan
8758;BME280;4415;42.152;24.744;2023-06-26T13:09:25;99085.13;;;27.83;nan
8758;BME280;4415;42.152;24.744;2023-06-26T13:11:54;99090.19;;;27.57;nan
8758;BME280;4415;42.152;24.744;2023-06-26T13:14:20;99088.16;;;27.21;nan
8758;BME280;4415;42.152;24.744;2023-06-26T13:16:46;99091.97;;;27.41;nan
8758;BME280;4415;42.152;24.744;2023-06-26T13:19:11;99090.38;;;27.36;nan
8758;BME280;4415;42.152;24.744;2023-06-26T13:21:37;99086.59;;;27.20;nan
8758;BME280;4415;42.152;24.744;2023-06-26T13:24:03;99103.84;;;27.41;nan
8758;BME280;4415;42.152;24.744;2023-06-26T13:26:29;99095.72;;;27.57;nan
8758;BME280;4415;42.152;24.744;2023-06-26T13:28:54;99090.53;;;27.22;nan
8758;BME280;4415;42.152;24.744;2023-06-26T13:31:20;99097.25;;;26.77;nan
8758;BME280;4415;42.152;24.744;2023-06-26T13:33:47;99011.88;;;26.58;nan
8758;BME280;4415;42.152;24.744;2023-06-26T13:36:16;99086.75;;;27.02;nan
8758;BME280;4415;42.152;24.744;2023-06-26T13:38:41;99088.25;;;27.10;nan
8758;BME280;4415;42.152;24.744;2023-06-26T13:41:07;99105.50;;;26.25;nan
8758;BME280;4415;42.152;24.744;2023-06-26T13:43:32;99107.22;;;25.91;nan
8758;BME280;4415;42.152;24.744;2023-06-26T13:45:58;99104.78;;;26.07;nan
8758;BME280;4415;42.152;24.744;2023-06-26T13:48:23;99097.66;;;26.13;nan
8758;BME280;4415;42.152;24.744;2023-06-26T13:50:51;99083.22;;;26.43;nan
8758;BME280;4415;42.152;24.744;2023-06-26T13:53:17;99123.44;;;26.65;nan
8758;BME280;4415;42.152;24.744;2023-06-26T13:55:43;99114.63;;;26.12;nan
8758;BME280;4415;42.152;24.744;2023-06-26T13:58:09;99113.47;;;26.13;nan
8758;BME280;4415;42.152;24.744;2023-06-26T14:03:01;99120.69;;;25.89;nan
8758;BME280;4415;42.152;24.744;2023-06-26T14:05:28;99113.56;;;25.88;nan